Time;durP1;ratioP1;P1;durP2;ratioP2;P2;SDS_P1;SDS_P2;PMS_P1;PMS_P2;Temp;Humidity;BMP_temperature;BMP_pressure;BME280_temperature;BME280_humidity;BME280_pressure;Samples;Min_cycle;Max_cycle;Signal;HPM_P1;HPM_P2
2022/10/08 00:01:21;;;;;;;2.50;2.30;;;14.70;99.90;;;;;;5028606;23;20290;-72
2022/10/08 00:03:52;;;;;;;2.70;2.50;;;14.70;99.90;;;;;;5010056;28;20200;-73
2022/10/08 00:06:21;;;;;;;2.72;2.53;;;14.80;99.90;;;;;;5001099;28;20224;-73
2022/10/08 00:08:51;;;;;;;3.47;2.63;;;14.80;99.90;;;;;;5007291;28;20702;-73
2022/10/08 00:11:20;;;;;;;2.90;2.67;;;14.80;99.90;;;;;;5017022;28;20227;-73
2022/10/08 00:13:49;;;;;;;2.95;2.70;;;14.80;99.90;;;;;;5016385;28;20198;-73
2022/10/08 00:16:20;;;;;;;2.63;2.42;;;14.80;99.90;;;;;;5012875;28;20715;-73
2022/10/08 00:18:49;;;;;;;3.13;2.83;;;14.80;99.90;;;;;;5009814;28;20200;-73
2022/10/08 00:21:21;;;;;;;2.55;2.38;;;14.70;99.90;;;;;;5028164;22;20231;-75
2022/10/08 00:23:51;;;;;;;2.70;2.50;;;14.80;99.90;;;;;;5029269;28;20214;-74
2022/10/08 00:26:22;;;;;;;2.40;2.20;;;14.70;99.90;;;;;;5020878;28;20232;-76
2022/10/08 00:28:50;;;;;;;2.78;2.58;;;14.70;99.90;;;;;;5031401;28;20196;-75
2022/10/08 00:31:19;;;;;;;3.20;2.90;;;14.70;99.90;;;;;;5036951;28;20711;-76
2022/10/08 00:33:49;;;;;;;2.80;2.60;;;14.70;99.90;;;;;;5009815;28;21138;-75
2022/10/08 00:36:17;;;;;;;2.65;2.45;;;14.60;99.90;;;;;;5001182;28;20213;-75
2022/10/08 00:38:44;;;;;;;2.50;2.33;;;14.60;99.90;;;;;;4994522;28;20291;-76
2022/10/08 00:41:19;;;;;;;2.75;2.55;;;14.60;99.90;;;;;;4992587;28;20223;-76
2022/10/08 00:43:49;;;;;;;2.72;2.53;;;14.50;99.90;;;;;;4995449;28;20201;-76
2022/10/08 00:46:24;;;;;;;2.50;2.38;;;14.50;99.90;;;;;;5005018;28;20228;-75
2022/10/08 00:48:59;;;;;;;2.25;2.13;;;14.50;99.90;;;;;;5013811;28;20219;-75
2022/10/08 00:51:27;;;;;;;2.60;2.40;;;14.50;99.90;;;;;;5003353;28;20224;-75
2022/10/08 00:53:54;;;;;;;2.83;2.60;;;14.50;99.90;;;;;;5013351;28;20200;-76
2022/10/08 00:56:24;;;;;;;2.80;2.60;;;14.50;99.90;;;;;;5010649;28;20634;-76
2022/10/08 00:58:52;;;;;;;2.55;2.35;;;14.40;99.90;;;;;;5012168;28;20295;-76
2022/10/08 01:01:20;;;;;;;4.40;3.28;;;14.40;99.90;;;;;;5009229;28;20502;-75
2022/10/08 01:03:47;;;;;;;3.00;2.80;;;14.30;99.90;;;;;;5010795;28;20199;-74
2022/10/08 01:06:23;;;;;;;2.78;2.53;;;14.20;99.90;;;;;;5008022;28;20211;-75
2022/10/08 01:08:58;;;;;;;2.85;2.65;;;14.20;99.90;;;;;;5007670;28;20200;-75
2022/10/08 01:11:38;;;;;;;2.55;2.30;;;14.10;99.90;;;;;;5006683;28;20215;-75
2022/10/08 01:14:12;;;;;;;2.80;2.60;;;14.10;99.90;;;;;;5009369;28;20200;-75
2022/10/08 01:16:47;;;;;;;2.42;2.22;;;14.10;99.90;;;;;;5009039;28;20695;-75
2022/10/08 01:19:36;;;;;;;2.75;2.55;;;14.10;99.90;;;;;;5016635;28;20199;-76
2022/10/08 01:22:20;;;;;;;2.63;2.42;;;14.10;99.90;;;;;;4987123;28;20721;-76
2022/10/08 01:27:42;;;;;;;2.55;2.35;;;14.00;99.90;;;;;;4985707;28;20706;-76
2022/10/08 01:30:14;;;;;;;3.47;3.13;;;14.00;99.90;;;;;;4993561;28;20754;-76
2022/10/08 01:32:49;;;;;;;2.97;2.78;;;13.90;99.90;;;;;;4992906;28;20303;-75
2022/10/08 01:35:20;;;;;;;3.35;2.45;;;13.90;99.90;;;;;;4987761;28;20235;-75
2022/10/08 01:37:49;;;;;;;2.80;2.60;;;13.90;99.90;;;;;;4990538;28;20578;-75
2022/10/08 01:40:19;;;;;;;2.30;2.20;;;13.90;99.90;;;;;;4992149;28;20216;-76
2022/10/08 01:42:51;;;;;;;2.20;2.10;;;13.90;99.90;;;;;;4997224;28;20249;-76
2022/10/08 01:45:23;;;;;;;2.63;2.42;;;13.90;99.90;;;;;;4987781;28;20224;-75
2022/10/08 01:47:52;;;;;;;2.60;2.40;;;13.90;99.90;;;;;;4986379;28;20279;-75
2022/10/08 01:50:25;;;;;;;2.72;2.53;;;13.80;99.90;;;;;;5000950;28;20219;-75
2022/10/08 01:52:56;;;;;;;2.30;2.20;;;13.80;99.90;;;;;;5009677;28;20208;-75
2022/10/08 01:55:27;;;;;;;2.88;2.60;;;13.80;99.90;;;;;;4998371;28;20224;-75
2022/10/08 01:57:58;;;;;;;3.78;2.60;;;13.80;99.90;;;;;;4992029;28;20203;-75
2022/10/08 02:00:25;;;;;;;2.70;2.50;;;13.70;99.90;;;;;;5001551;28;20232;-76
2022/10/08 02:02:55;;;;;;;2.85;2.65;;;13.70;99.90;;;;;;5013202;28;20219;-76
2022/10/08 02:05:23;;;;;;;3.17;2.63;;;13.70;99.90;;;;;;5010305;28;20224;-77
2022/10/08 02:07:51;;;;;;;2.80;2.60;;;13.60;99.90;;;;;;5011447;28;20216;-75
2022/10/08 02:10:21;;;;;;;2.65;2.45;;;13.60;99.90;;;;;;5012747;28;20274;-78
2022/10/08 02:12:49;;;;;;;2.72;2.53;;;13.60;99.90;;;;;;5012909;28;20270;-75
2022/10/08 02:15:21;;;;;;;2.55;2.35;;;13.50;99.90;;;;;;5005257;28;20216;-78
2022/10/08 02:17:57;;;;;;;3.05;2.60;;;13.50;99.90;;;;;;5013823;28;20204;-76
2022/10/08 02:20:30;;;;;;;3.25;2.72;;;13.50;99.90;;;;;;5007163;28;20216;-75
2022/10/08 02:23:02;;;;;;;3.53;2.90;;;13.50;99.90;;;;;;5013995;28;20228;-75
2022/10/08 02:25:33;;;;;;;2.70;2.50;;;13.40;99.90;;;;;;5009183;28;20594;-75
2022/10/08 02:28:09;;;;;;;2.65;2.45;;;13.40;99.90;;;;;;5009228;28;20223;-76
2022/10/08 02:30:43;;;;;;;2.72;2.53;;;13.30;99.90;;;;;;5008959;28;20226;-76
2022/10/08 02:33:14;;;;;;;2.78;2.58;;;13.30;99.90;;;;;;5014501;28;20222;-76
2022/10/08 02:35:47;;;;;;;2.28;2.17;;;13.30;99.90;;;;;;5016777;28;20234;-75
2022/10/08 02:38:19;;;;;;;2.85;2.60;;;13.20;99.90;;;;;;5022688;28;20195;-76
2022/10/08 02:40:50;;;;;;;2.72;2.53;;;13.30;99.90;;;;;;5014293;28;20231;-76
2022/10/08 02:43:22;;;;;;;2.40;2.30;;;13.30;99.90;;;;;;5006017;28;20231;-76
2022/10/08 02:45:58;;;;;;;2.88;2.67;;;13.30;99.90;;;;;;5017592;28;20227;-75
2022/10/08 02:48:30;;;;;;;2.53;2.35;;;13.20;99.90;;;;;;5009376;28;20191;-75
2022/10/08 02:51:01;;;;;;;2.78;2.58;;;13.20;99.90;;;;;;5017246;28;20215;-76
2022/10/08 02:53:29;;;;;;;3.05;2.85;;;13.20;99.90;;;;;;5010240;28;20754;-76
2022/10/08 02:56:07;;;;;;;2.70;2.50;;;13.20;99.90;;;;;;5013796;28;20673;-76
2022/10/08 02:58:35;;;;;;;2.60;2.40;;;13.20;99.90;;;;;;5017481;28;20633;-76
2022/10/08 03:01:13;;;;;;;2.88;2.63;;;13.20;99.90;;;;;;5012823;28;20219;-75
2022/10/08 03:03:45;;;;;;;2.80;2.60;;;13.10;99.90;;;;;;5007355;28;20200;-76
2022/10/08 03:06:14;;;;;;;2.90;2.70;;;13.10;99.90;;;;;;5016241;28;20219;-75
2022/10/08 03:08:47;;;;;;;2.97;2.78;;;13.10;99.90;;;;;;5016867;28;20200;-74
2022/10/08 03:11:16;;;;;;;2.90;2.70;;;13.20;99.90;;;;;;5015120;28;20290;-74
2022/10/08 03:13:45;;;;;;;4.45;2.75;;;13.20;99.90;;;;;;5009919;28;20192;-76
2022/10/08 03:16:18;;;;;;;3.08;2.88;;;13.10;99.90;;;;;;5010114;28;20247;-75
2022/10/08 03:18:46;;;;;;;2.78;2.58;;;13.10;99.90;;;;;;5011130;28;20279;-75
2022/10/08 03:21:15;;;;;;;2.83;2.63;;;13.10;99.90;;;;;;5014109;28;20216;-75
2022/10/08 03:23:42;;;;;;;2.80;2.60;;;13.10;99.90;;;;;;5016322;28;20662;-75
2022/10/08 03:26:09;;;;;;;2.60;2.40;;;13.00;99.90;;;;;;5013056;28;20227;-76
2022/10/08 03:28:36;;;;;;;2.78;2.58;;;13.00;99.90;;;;;;5015599;28;20204;-74
2022/10/08 03:31:05;;;;;;;3.25;2.50;;;13.00;99.90;;;;;;5009621;28;20227;-76
2022/10/08 03:33:33;;;;;;;2.72;2.53;;;13.00;99.90;;;;;;5010459;28;20283;-76
2022/10/08 03:36:00;;;;;;;2.70;2.50;;;13.00;99.90;;;;;;5024397;28;20228;-75
2022/10/08 03:38:28;;;;;;;2.60;2.40;;;13.00;99.90;;;;;;5012581;28;20389;-75
2022/10/08 03:40:57;;;;;;;3.30;3.00;;;12.90;99.90;;;;;;5014592;28;20220;-75
2022/10/08 03:43:24;;;;;;;2.83;2.60;;;12.90;99.90;;;;;;5011825;28;20216;-75
2022/10/08 03:45:52;;;;;;;2.70;2.50;;;12.80;99.90;;;;;;5011570;28;20687;-76
2022/10/08 03:48:20;;;;;;;3.13;2.83;;;12.80;99.90;;;;;;5012086;28;20216;-75
2022/10/08 03:50:53;;;;;;;2.97;2.78;;;12.80;99.90;;;;;;5010548;28;20242;-77
2022/10/08 03:53:21;;;;;;;2.65;2.45;;;12.70;99.90;;;;;;5014475;28;20286;-75
2022/10/08 03:55:48;;;;;;;3.13;2.92;;;12.70;99.90;;;;;;5021541;28;20220;-76
2022/10/08 03:58:16;;;;;;;2.95;2.75;;;12.70;99.90;;;;;;5009493;28;20192;-75
2022/10/08 04:00:44;;;;;;;2.80;2.60;;;12.70;99.90;;;;;;5012630;28;20215;-75
2022/10/08 04:03:11;;;;;;;3.20;2.95;;;12.70;99.90;;;;;;5012179;28;20208;-76
2022/10/08 04:05:38;;;;;;;2.60;2.40;;;12.70;99.90;;;;;;5017492;28;20702;-75
2022/10/08 04:08:06;;;;;;;3.22;2.92;;;12.60;99.90;;;;;;5012470;28;20228;-75
2022/10/08 04:10:38;;;;;;;2.83;2.63;;;12.60;99.90;;;;;;5012530;28;20227;-75
2022/10/08 04:13:05;;;;;;;2.90;2.70;;;12.60;99.90;;;;;;5011130;28;20223;-76
2022/10/08 04:15:32;;;;;;;2.63;2.47;;;12.60;99.90;;;;;;5017079;28;20218;-76
2022/10/08 04:17:59;;;;;;;3.10;2.85;;;12.50;99.90;;;;;;5014621;28;20200;-75
2022/10/08 04:20:26;;;;;;;2.28;2.15;;;12.50;99.90;;;;;;5010951;28;20220;-76
2022/10/08 04:22:53;;;;;;;2.90;2.70;;;12.50;99.90;;;;;;5007318;28;20220;-75
2022/10/08 04:25:21;;;;;;;2.63;2.47;;;12.50;99.90;;;;;;5014002;28;20215;-76
2022/10/08 04:27:49;;;;;;;3.25;2.95;;;12.50;99.90;;;;;;5011121;28;20220;-76
2022/10/08 04:30:16;;;;;;;2.90;2.70;;;12.50;99.90;;;;;;5007884;28;21634;-75
2022/10/08 04:32:43;;;;;;;2.78;2.58;;;12.50;99.90;;;;;;5015241;28;20220;-76
2022/10/08 04:35:10;;;;;;;4.90;2.60;;;12.50;99.90;;;;;;5016577;28;20702;-75
2022/10/08 04:37:37;;;;;;;2.63;2.45;;;12.50;99.90;;;;;;5009014;28;20262;-75
2022/10/08 04:40:05;;;;;;;2.72;2.53;;;12.50;99.90;;;;;;5011582;28;20224;-75
2022/10/08 04:42:33;;;;;;;3.22;3.03;;;12.50;99.90;;;;;;5010558;28;20212;-75
2022/10/08 04:45:00;;;;;;;3.55;2.70;;;12.50;99.90;;;;;;5010326;28;20706;-74
2022/10/08 04:47:27;;;;;;;2.60;2.40;;;12.40;99.90;;;;;;5011472;28;20231;-74
2022/10/08 04:49:54;;;;;;;2.40;2.30;;;12.40;99.90;;;;;;5013171;28;20231;-75
2022/10/08 04:52:21;;;;;;;2.78;2.58;;;12.40;99.90;;;;;;5012242;28;20227;-75
2022/10/08 04:54:49;;;;;;;2.70;2.50;;;12.40;99.90;;;;;;5009472;28;20227;-75
2022/10/08 04:57:16;;;;;;;2.40;2.30;;;12.30;99.90;;;;;;5015211;28;20662;-74
2022/10/08 04:59:44;;;;;;;2.75;2.55;;;12.30;99.90;;;;;;5010222;28;20607;-75
2022/10/08 05:02:11;;;;;;;2.90;2.70;;;12.30;99.90;;;;;;5013791;28;20266;-75
2022/10/08 05:04:38;;;;;;;2.90;2.70;;;12.30;99.90;;;;;;5013652;28;20196;-77
2022/10/08 05:07:05;;;;;;;2.80;2.60;;;12.30;99.90;;;;;;5012101;28;20232;-77
2022/10/08 05:09:32;;;;;;;2.47;2.28;;;12.40;99.90;;;;;;5013229;28;20200;-77
2022/10/08 05:11:59;;;;;;;2.85;2.65;;;12.30;99.90;;;;;;5011811;28;20219;-78
2022/10/08 05:14:26;;;;;;;2.60;2.40;;;12.30;99.90;;;;;;5008330;28;20197;-77
2022/10/08 05:16:55;;;;;;;2.35;2.25;;;12.40;99.90;;;;;;5008580;28;20203;-77
2022/10/08 05:19:22;;;;;;;2.80;2.60;;;12.30;99.90;;;;;;5018092;28;20648;-77
2022/10/08 05:21:49;;;;;;;3.85;2.85;;;12.30;99.90;;;;;;5012480;28;20571;-77
2022/10/08 05:24:16;;;;;;;2.85;2.65;;;12.20;99.90;;;;;;5014042;28;20296;-75
2022/10/08 05:26:43;;;;;;;2.83;2.63;;;12.20;99.90;;;;;;5010565;28;20223;-75
2022/10/08 05:29:11;;;;;;;2.90;2.70;;;12.20;99.90;;;;;;5009142;28;20203;-75
2022/10/08 05:31:39;;;;;;;2.58;2.38;;;12.10;99.90;;;;;;5011720;28;20235;-76
2022/10/08 05:34:07;;;;;;;2.85;2.65;;;12.10;99.90;;;;;;5004725;28;20212;-74
2022/10/08 05:36:34;;;;;;;2.92;2.72;;;12.10;99.90;;;;;;5005138;28;20228;-74
2022/10/08 05:39:04;;;;;;;3.00;2.80;;;12.10;99.90;;;;;;5010153;28;20199;-76
2022/10/08 05:41:32;;;;;;;2.83;2.63;;;12.00;99.90;;;;;;5009647;28;20224;-74
2022/10/08 05:44:01;;;;;;;2.85;2.65;;;12.00;99.90;;;;;;5009363;28;20211;-77
2022/10/08 05:46:29;;;;;;;2.90;2.70;;;12.00;99.90;;;;;;5013374;28;20642;-74
2022/10/08 05:48:58;;;;;;;3.13;2.92;;;12.10;99.90;;;;;;5012933;28;20219;-78
2022/10/08 05:51:28;;;;;;;2.75;2.55;;;12.10;99.90;;;;;;5007587;28;20725;-74
2022/10/08 05:53:56;;;;;;;3.38;2.75;;;12.10;99.90;;;;;;5014829;28;20196;-75
2022/10/08 05:56:25;;;;;;;2.25;2.05;;;12.00;99.90;;;;;;5011474;28;20537;-77
2022/10/08 05:58:53;;;;;;;3.38;2.70;;;12.00;99.90;;;;;;5012846;28;20584;-78
2022/10/08 06:01:23;;;;;;;2.35;2.22;;;12.00;99.90;;;;;;5010139;28;20212;-77
2022/10/08 06:03:51;;;;;;;2.55;2.38;;;12.10;99.90;;;;;;5013146;28;20196;-77
2022/10/08 06:06:19;;;;;;;2.70;2.50;;;12.10;99.90;;;;;;5019845;28;20618;-75
2022/10/08 06:08:47;;;;;;;3.00;2.80;;;12.10;99.90;;;;;;5006582;28;20215;-75
2022/10/08 06:11:15;;;;;;;2.80;2.60;;;12.10;99.90;;;;;;5013590;28;20211;-77
2022/10/08 06:13:42;;;;;;;3.38;3.08;;;12.10;99.90;;;;;;5005989;28;20486;-76
2022/10/08 06:16:11;;;;;;;3.75;2.78;;;12.20;99.90;;;;;;5011650;28;20226;-76
2022/10/08 06:18:40;;;;;;;2.83;2.63;;;12.20;99.90;;;;;;5010462;28;20215;-76
2022/10/08 06:21:09;;;;;;;2.70;2.50;;;12.20;99.90;;;;;;5019940;28;20220;-75
2022/10/08 06:26:09;;;;;;;2.85;2.65;;;12.20;99.90;;;;;;5015351;28;20470;-75
2022/10/08 06:28:37;;;;;;;2.80;2.60;;;12.20;99.90;;;;;;5025531;28;20258;-77
2022/10/08 06:31:05;;;;;;;2.83;2.63;;;12.20;99.90;;;;;;4997811;28;20228;-78
2022/10/08 06:33:33;;;;;;;2.92;2.72;;;12.20;99.90;;;;;;4987045;28;20222;-79
2022/10/08 06:36:03;;;;;;;3.03;2.70;;;12.60;99.90;;;;;;4976102;28;20230;-78
2022/10/08 06:38:30;;;;;;;4.10;2.95;;;13.40;99.90;;;;;;4976906;28;20211;-81
2022/10/08 06:40:58;;;;;;;2.90;2.70;;;14.10;99.90;;;;;;4978946;28;20224;-78
2022/10/08 06:43:26;;;;;;;3.03;2.83;;;14.80;99.90;;;;;;4977335;28;20213;-78
2022/10/08 06:45:55;;;;;;;3.10;2.83;;;15.50;99.90;;;;;;4972212;28;20654;-78
2022/10/08 06:48:23;;;;;;;2.90;2.70;;;16.20;99.90;;;;;;4976906;28;20687;-79
2022/10/08 06:50:58;;;;;;;3.60;2.75;;;16.70;99.90;;;;;;4975756;28;20249;-80
2022/10/08 06:53:25;;;;;;;3.15;2.90;;;17.10;99.90;;;;;;4978606;28;20250;-79
2022/10/08 06:55:56;;;;;;;4.38;2.88;;;17.40;99.90;;;;;;4971330;28;20229;-78
2022/10/08 06:58:24;;;;;;;3.00;2.72;;;17.80;99.90;;;;;;4971660;28;20292;-78
2022/10/08 07:01:01;;;;;;;3.13;2.80;;;18.20;99.90;;;;;;4967926;28;20218;-77
2022/10/08 07:03:29;;;;;;;3.65;3.20;;;18.50;99.90;;;;;;4975381;28;20225;-77
2022/10/08 07:05:56;;;;;;;4.13;3.20;;;18.70;99.90;;;;;;4983713;28;20306;-80
2022/10/08 07:08:23;;;;;;;3.63;3.33;;;18.70;99.90;;;;;;4970370;28;20209;-78
2022/10/08 07:10:50;;;;;;;3.80;3.30;;;18.80;99.90;;;;;;4979414;28;20221;-76
2022/10/08 07:13:17;;;;;;;3.50;3.20;;;18.90;99.90;;;;;;4984381;28;20647;-77
2022/10/08 07:15:44;;;;;;;3.22;2.92;;;19.00;99.90;;;;;;4976989;28;20225;-78
2022/10/08 07:18:13;;;;;;;3.35;3.05;;;19.10;99.90;;;;;;4984992;28;20676;-78
2022/10/08 07:20:40;;;;;;;3.30;2.88;;;19.20;99.90;;;;;;4979497;28;20221;-78
2022/10/08 07:23:07;;;;;;;7.97;3.25;;;19.40;99.90;;;;;;4981944;28;20715;-79
2022/10/08 07:25:34;;;;;;;4.00;3.03;;;19.60;99.90;;;;;;4972017;28;20228;-77
2022/10/08 07:28:01;;;;;;;3.53;3.00;;;19.80;99.90;;;;;;4957379;28;20592;-78
2022/10/08 07:30:28;;;;;;;3.08;2.80;;;19.90;99.90;;;;;;4950135;28;20719;-77
2022/10/08 07:32:55;;;;;;;3.47;3.17;;;20.20;99.90;;;;;;4946401;28;20222;-78
2022/10/08 07:35:23;;;;;;;4.15;3.22;;;20.30;99.90;;;;;;4956730;28;20218;-77
2022/10/08 07:37:51;;;;;;;3.40;3.10;;;20.50;99.90;;;;;;4953689;28;20213;-77
2022/10/08 07:40:18;;;;;;;3.28;2.92;;;20.50;99.90;;;;;;4948074;28;20222;-78
2022/10/08 07:42:45;;;;;;;3.88;3.45;;;20.50;99.90;;;;;;4955162;28;20225;-77
2022/10/08 07:45:12;;;;;;;5.03;3.67;;;20.50;99.90;;;;;;4959158;28;20245;-76
2022/10/08 07:47:39;;;;;;;3.67;2.85;;;20.70;99.90;;;;;;4952415;28;20202;-77
2022/10/08 07:50:06;;;;;;;2.75;2.55;;;20.90;99.90;;;;;;4957983;28;20458;-76
2022/10/08 07:52:35;;;;;;;3.00;2.80;;;21.20;99.90;;;;;;4957748;28;20258;-76
2022/10/08 07:55:02;;;;;;;3.30;3.00;;;21.30;99.90;;;;;;4959367;28;20229;-76
2022/10/08 07:57:29;;;;;;;3.20;2.90;;;21.20;99.90;;;;;;4952186;28;20713;-76
2022/10/08 07:59:56;;;;;;;3.80;3.00;;;21.10;99.90;;;;;;4960648;28;20421;-76
2022/10/08 08:02:23;;;;;;;3.92;3.42;;;21.20;99.90;;;;;;4959801;28;20209;-76
2022/10/08 08:04:50;;;;;;;3.47;3.17;;;21.10;99.90;;;;;;4952468;28;20309;-76
2022/10/08 08:07:17;;;;;;;3.88;3.00;;;21.10;99.90;;;;;;4955601;28;20214;-76
2022/10/08 08:09:46;;;;;;;3.17;2.88;;;21.10;99.90;;;;;;4954871;28;20255;-76
2022/10/08 08:12:13;;;;;;;2.83;2.60;;;21.10;99.90;;;;;;4957948;28;20202;-76
2022/10/08 08:14:40;;;;;;;2.80;2.60;;;21.40;99.90;;;;;;4958935;28;20221;-77
2022/10/08 08:17:07;;;;;;;3.88;3.13;;;21.70;99.90;;;;;;4945906;28;20214;-76
2022/10/08 08:19:35;;;;;;;2.85;2.60;;;21.70;99.90;;;;;;4952483;28;20203;-77
2022/10/08 08:22:02;;;;;;;3.38;2.45;;;21.90;99.90;;;;;;4950599;28;20265;-77
2022/10/08 08:24:29;;;;;;;3.78;2.95;;;22.10;99.90;;;;;;4960759;28;20225;-78
2022/10/08 08:26:58;;;;;;;4.18;2.97;;;22.20;99.90;;;;;;4963254;28;20194;-78
2022/10/08 08:29:25;;;;;;;3.20;2.90;;;22.00;99.90;;;;;;4966506;28;20233;-79
2022/10/08 08:31:52;;;;;;;6.50;3.40;;;21.90;99.90;;;;;;4966049;28;20202;-76
2022/10/08 08:34:21;;;;;;;3.17;2.88;;;21.80;99.90;;;;;;4971933;28;20651;-74
2022/10/08 08:36:50;;;;;;;3.83;3.53;;;21.60;99.90;;;;;;4967655;28;20224;-76
2022/10/08 08:39:19;;;;;;;3.35;2.72;;;21.60;99.90;;;;;;4967379;28;20194;-77
2022/10/08 08:42:13;;;;;;;3.80;3.10;;;21.80;99.90;;;;;;4982849;28;21265;-77
2022/10/08 08:44:42;;;;;;;3.70;3.05;;;21.80;99.90;;;;;;4988487;28;20434;-78
2022/10/08 08:47:17;;;;;;;3.25;2.88;;;22.00;99.90;;;;;;4991715;28;20204;-77
2022/10/08 08:49:47;;;;;;;2.92;2.72;;;22.00;99.90;;;;;;4990316;28;20233;-76
2022/10/08 08:52:17;;;;;;;3.95;2.58;;;22.00;99.90;;;;;;4988614;28;20206;-77
2022/10/08 08:54:48;;;;;;;3.00;2.75;;;21.90;99.90;;;;;;4989576;28;20228;-77
2022/10/08 08:57:30;;;;;;;2.70;2.50;;;21.90;99.90;;;;;;4986669;28;20240;-79
2022/10/08 09:00:03;;;;;;;3.15;2.67;;;22.20;99.90;;;;;;4987063;28;20731;-78
2022/10/08 09:02:35;;;;;;;2.97;2.67;;;22.70;99.90;;;;;;4984450;28;20675;-76
2022/10/08 09:05:06;;;;;;;4.18;2.83;;;22.90;99.90;;;;;;4986374;28;20240;-76
2022/10/08 09:07:41;;;;;;;2.95;2.75;;;23.00;99.90;;;;;;4991329;28;20209;-76
2022/10/08 09:10:14;;;;;;;3.10;2.80;;;22.70;99.90;;;;;;4988006;28;20232;-76
2022/10/08 09:12:44;;;;;;;2.80;2.60;;;22.50;99.90;;;;;;4984397;28;20994;-75
2022/10/08 09:15:18;;;;;;;3.25;2.70;;;22.50;99.90;;;;;;4984350;28;20295;-76
2022/10/08 09:17:48;;;;;;;3.95;3.10;;;22.60;99.90;;;;;;4989196;28;20192;-76
2022/10/08 09:20:17;;;;;;;2.80;2.60;;;22.70;99.90;;;;;;4992549;28;20287;-75
2022/10/08 09:22:45;;;;;;;3.22;2.92;;;22.70;99.90;;;;;;4987862;28;20216;-75
2022/10/08 09:25:14;;;;;;;4.82;3.13;;;22.70;99.90;;;;;;4987249;28;20248;-75
2022/10/08 09:27:51;;;;;;;3.10;2.80;;;22.70;99.90;;;;;;4987424;28;20251;-76
2022/10/08 09:30:43;;;;;;;2.60;2.40;;;22.70;99.90;;;;;;4987734;28;20217;-75
2022/10/08 09:33:22;;;;;;;4.78;2.92;;;22.50;99.90;;;;;;4982254;28;20239;-75
2022/10/08 09:35:50;;;;;;;3.72;2.70;;;22.50;99.90;;;;;;4983868;28;20711;-74
2022/10/08 09:38:22;;;;;;;3.45;2.90;;;22.50;99.90;;;;;;4985315;28;20208;-76
2022/10/08 09:41:04;;;;;;;3.20;2.90;;;22.80;99.90;;;;;;4985380;28;20217;-75
2022/10/08 09:43:33;;;;;;;3.33;2.70;;;23.00;99.90;;;;;;4986904;28;20220;-75
2022/10/08 09:46:04;;;;;;;3.33;2.88;;;23.10;99.90;;;;;;4988182;28;20221;-76
2022/10/08 09:48:31;;;;;;;3.13;2.83;;;23.10;99.90;;;;;;4987956;28;20224;-74
2022/10/08 09:51:04;;;;;;;3.50;2.70;;;23.30;99.90;;;;;;4988449;28;20229;-76
2022/10/08 09:53:40;;;;;;;3.72;2.65;;;23.50;99.90;;;;;;4987015;28;20263;-75
2022/10/08 09:56:09;;;;;;;2.88;2.45;;;23.70;99.90;;;;;;4987625;28;20228;-75
2022/10/08 09:58:49;;;;;;;3.80;2.60;;;23.80;99.90;;;;;;4988638;28;20212;-76
2022/10/08 10:01:17;;;;;;;2.95;2.58;;;23.90;99.90;;;;;;4984913;28;20228;-76
2022/10/08 10:03:51;;;;;;;3.10;2.80;;;23.70;99.90;;;;;;4985628;28;20307;-76
2022/10/08 10:06:27;;;;;;;2.83;2.60;;;23.50;99.90;;;;;;4988035;28;20236;-75
2022/10/08 10:08:59;;;;;;;4.13;2.78;;;23.60;99.90;;;;;;4985694;28;20251;-76
2022/10/08 10:11:35;;;;;;;3.15;2.85;;;23.80;99.90;;;;;;4988213;28;20604;-75
2022/10/08 10:14:14;;;;;;;5.60;2.83;;;23.80;99.90;;;;;;4988195;28;20248;-76
2022/10/08 10:16:44;;;;;;;3.33;3.00;;;23.60;99.90;;;;;;4988250;28;20240;-76
2022/10/08 10:19:17;;;;;;;3.95;2.83;;;23.50;99.90;;;;;;4988008;28;20283;-76
2022/10/08 10:21:53;;;;;;;2.90;2.70;;;23.50;99.90;;;;;;4986427;28;20682;-75
2022/10/08 10:24:41;;;;;;;4.32;2.70;;;23.60;99.90;;;;;;4985410;28;20224;-75
2022/10/08 10:27:13;;;;;;;2.78;2.58;;;23.60;99.90;;;;;;4978953;28;20213;-75
2022/10/08 10:29:59;;;;;;;3.03;2.60;;;23.50;99.90;;;;;;4972355;28;20204;-75
2022/10/08 10:32:30;;;;;;;3.67;2.40;;;23.60;99.90;;;;;;4975900;28;20209;-76
2022/10/08 10:35:07;;;;;;;4.38;3.03;;;23.40;99.90;;;;;;4977181;28;20279;-75
2022/10/08 10:37:40;;;;;;;3.33;2.88;;;23.20;99.90;;;;;;4974497;28;20287;-76
2022/10/08 10:40:31;;;;;;;3.10;2.60;;;23.20;99.90;;;;;;4971560;28;20236;-75
2022/10/08 10:43:20;;;;;;;3.72;2.70;;;22.90;99.90;;;;;;4965969;28;20237;-76
2022/10/08 10:45:56;;;;;;;3.35;2.78;;;23.10;99.90;;;;;;4972685;28;20221;-75
2022/10/08 10:48:23;;;;;;;3.17;2.33;;;23.40;99.90;;;;;;4973070;28;20194;-76
2022/10/08 10:51:03;;;;;;;4.47;3.00;;;23.40;99.90;;;;;;4980327;28;20239;-76
2022/10/08 10:53:43;;;;;;;3.78;2.60;;;23.40;99.90;;;;;;4971732;28;20308;-76
2022/10/08 10:56:16;;;;;;;2.95;2.67;;;23.50;99.90;;;;;;4975461;28;20520;-76
2022/10/08 10:59:02;;;;;;;3.35;2.65;;;23.70;99.90;;;;;;4975506;28;20260;-75
2022/10/08 11:01:39;;;;;;;3.00;2.70;;;24.10;99.90;;;;;;4972682;28;20224;-76
2022/10/08 11:04:14;;;;;;;2.15;2.05;;;24.00;99.90;;;;;;4973994;28;20244;-75
2022/10/08 11:07:04;;;;;;;2.58;2.35;;;23.90;99.90;;;;;;4976561;28;20787;-76
2022/10/08 11:09:41;;;;;;;2.90;2.70;;;24.20;99.90;;;;;;4980275;28;20218;-75
2022/10/08 11:12:27;;;;;;;3.25;2.58;;;24.30;99.90;;;;;;4977215;28;20205;-76
2022/10/08 11:15:06;;;;;;;2.60;2.40;;;24.40;99.90;;;;;;4976015;28;20657;-75
2022/10/08 11:17:55;;;;;;;2.70;2.50;;;24.20;99.90;;;;;;4979443;28;20562;-75
2022/10/08 11:20:47;;;;;;;3.65;2.72;;;24.10;99.90;;;;;;4982035;28;20223;-75
2022/10/08 11:23:27;;;;;;;2.65;2.45;;;23.90;99.90;;;;;;4962204;28;20213;-75
2022/10/08 11:25:58;;;;;;;2.50;2.30;;;23.80;99.90;;;;;;4969886;28;20221;-76
2022/10/08 11:28:36;;;;;;;2.30;2.13;;;23.80;99.90;;;;;;4978712;28;20205;-76
2022/10/08 11:31:13;;;;;;;3.13;2.28;;;23.90;99.90;;;;;;4980234;28;20268;-77
2022/10/08 11:33:44;;;;;;;4.97;2.67;;;24.00;99.90;;;;;;4976427;28;20224;-75
2022/10/08 11:36:21;;;;;;;2.28;2.08;;;24.20;99.90;;;;;;4972211;28;20252;-76
2022/10/08 11:38:54;;;;;;;2.60;2.40;;;24.10;99.90;;;;;;4972155;28;20620;-76
2022/10/08 11:41:29;;;;;;;2.55;2.00;;;24.30;99.90;;;;;;4975008;28;20294;-76
2022/10/08 11:44:00;;;;;;;3.22;2.25;;;24.40;99.90;;;;;;4974142;28;20221;-77
2022/10/08 11:46:29;;;;;;;2.75;2.15;;;24.40;99.90;;;;;;4975728;28;21740;-75
2022/10/08 11:49:00;;;;;;;2.20;2.00;;;24.40;99.90;;;;;;4976791;28;20204;-75
2022/10/08 11:51:48;;;;;;;2.75;2.55;;;24.40;99.90;;;;;;4972061;28;20652;-76
2022/10/08 11:54:23;;;;;;;2.30;2.10;;;24.10;99.90;;;;;;4978165;28;20300;-76
2022/10/08 11:56:51;;;;;;;2.50;2.30;;;24.10;99.90;;;;;;4970251;28;20212;-76
2022/10/08 11:59:38;;;;;;;2.17;2.00;;;24.00;99.90;;;;;;4968980;28;20700;-75
2022/10/08 12:02:18;;;;;;;2.30;2.20;;;24.20;99.90;;;;;;5001497;28;20221;-76
2022/10/08 12:04:48;;;;;;;2.40;2.20;;;24.10;99.90;;;;;;4991561;28;20224;-76
2022/10/08 12:07:27;;;;;;;2.13;1.92;;;24.10;99.90;;;;;;4972383;28;20206;-75
2022/10/08 12:10:32;;;;;;;1.95;1.85;;;24.10;99.90;;;;;;4971260;28;20882;-76
2022/10/08 12:13:29;;;;;;;2.20;2.00;;;24.20;99.90;;;;;;4996844;28;20231;-75
2022/10/08 12:16:07;;;;;;;2.10;1.90;;;24.30;99.90;;;;;;4996164;28;20228;-75
2022/10/08 12:18:52;;;;;;;2.45;2.05;;;24.40;99.90;;;;;;5002896;28;20385;-76
2022/10/08 12:21:51;;;;;;;2.25;2.13;;;24.40;99.90;;;;;;4994805;28;20208;-76
2022/10/08 12:24:55;;;;;;;1.92;1.83;;;24.40;99.90;;;;;;4986179;28;20760;-75
2022/10/08 12:27:38;;;;;;;2.20;1.90;;;24.50;99.90;;;;;;4974075;28;20225;-76
2022/10/08 12:30:11;;;;;;;3.80;2.45;;;24.20;99.90;;;;;;4965637;28;20312;-76
2022/10/08 12:32:55;;;;;;;2.33;2.10;;;24.20;99.90;;;;;;4952429;28;20238;-76
2022/10/08 12:35:26;;;;;;;2.33;2.17;;;24.20;99.90;;;;;;4951684;28;20233;-76
2022/10/08 12:38:16;;;;;;;2.65;2.45;;;24.10;99.90;;;;;;4954771;28;20205;-76
2022/10/08 12:40:50;;;;;;;2.20;2.00;;;24.20;99.90;;;;;;4953183;28;20233;-75
2022/10/08 12:43:25;;;;;;;2.50;2.30;;;24.40;99.90;;;;;;4955171;28;20218;-76
2022/10/08 12:46:05;;;;;;;2.47;2.28;;;24.60;99.90;;;;;;4960250;28;20224;-76
2022/10/08 12:48:39;;;;;;;2.40;2.20;;;24.60;99.90;;;;;;4971481;28;20209;-75
2022/10/08 12:51:25;;;;;;;2.58;2.38;;;24.20;99.90;;;;;;4971083;28;20225;-75
2022/10/08 12:53:56;;;;;;;3.63;2.15;;;23.80;99.90;;;;;;4969574;28;20214;-75
2022/10/08 12:56:26;;;;;;;4.00;2.80;;;23.60;99.90;;;;;;4969784;28;20746;-76
2022/10/08 12:58:56;;;;;;;2.97;2.17;;;23.50;99.90;;;;;;4973344;28;20194;-76
2022/10/08 13:01:24;;;;;;;2.20;2.05;;;23.50;99.90;;;;;;4972929;28;20217;-76
2022/10/08 13:04:09;;;;;;;2.35;2.15;;;23.60;99.90;;;;;;4969511;28;20231;-76
2022/10/08 13:06:36;;;;;;;2.58;2.38;;;23.60;99.90;;;;;;4971128;28;20588;-76
2022/10/08 13:09:27;;;;;;;2.55;2.15;;;23.50;99.90;;;;;;4972030;28;20210;-76
2022/10/08 13:11:55;;;;;;;2.85;2.20;;;23.60;99.90;;;;;;4945718;28;20218;-77
2022/10/08 13:14:24;;;;;;;2.60;2.40;;;23.60;99.90;;;;;;4955732;28;20214;-76
2022/10/08 13:16:51;;;;;;;2.33;2.20;;;23.50;99.90;;;;;;4969264;28;20237;-75